createdAt,value
2023-03-16T00:01:02.532Z,21.09
2023-03-16T00:05:02.301Z,21.10
2023-03-16T00:09:02.468Z,21.08
2023-03-16T00:13:02.648Z,21.07
2023-03-16T00:17:02.826Z,21.05
2023-03-16T00:21:03.006Z,21.03
2023-03-16T00:25:03.162Z,21.00
2023-03-16T00:29:03.347Z,21.00
2023-03-16T00:33:03.563Z,20.98
2023-03-16T00:37:03.679Z,20.97
2023-03-16T00:41:03.872Z,20.98
2023-03-16T00:45:04.081Z,20.95
2023-03-16T00:49:04.287Z,20.95
2023-03-16T00:53:04.462Z,20.95
2023-03-16T00:57:04.589Z,20.94
2023-03-16T01:01:04.842Z,20.93
2023-03-16T01:05:05.032Z,20.93
2023-03-16T01:09:05.281Z,20.93
2023-03-16T01:13:05.455Z,20.92
2023-03-16T01:17:05.675Z,20.92
2023-03-16T01:21:06.034Z,20.91
2023-03-16T01:25:06.135Z,20.91
2023-03-16T01:29:06.296Z,20.91
2023-03-16T01:33:06.709Z,20.91
2023-03-16T01:37:06.829Z,20.90
2023-03-16T01:41:06.932Z,20.89
2023-03-16T01:45:07.214Z,20.90
2023-03-16T01:49:08.524Z,20.89
2023-03-16T01:53:07.628Z,20.89
2023-03-16T01:57:07.823Z,20.89
2023-03-16T02:01:08.100Z,20.88
2023-03-16T02:05:08.272Z,20.88
2023-03-16T02:09:08.993Z,20.88
2023-03-16T02:13:08.738Z,20.88
2023-03-16T02:17:09.037Z,20.87
2023-03-16T02:21:09.990Z,20.88
2023-03-16T02:25:09.083Z,20.88
2023-03-16T02:29:09.015Z,20.87
2023-03-16T02:33:08.920Z,20.88
2023-03-16T02:37:08.982Z,20.90
2023-03-16T02:41:08.859Z,20.91
2023-03-16T02:45:08.842Z,20.91
2023-03-16T02:49:09.019Z,20.92
2023-03-16T02:53:08.741Z,20.92
2023-03-16T02:57:08.697Z,20.93
2023-03-16T03:01:08.750Z,20.94
2023-03-16T03:05:08.970Z,20.92
2023-03-16T03:09:09.143Z,20.92
2023-03-16T03:13:09.364Z,20.94
2023-03-16T03:17:09.614Z,20.92
2023-03-16T03:21:09.814Z,20.91
2023-03-16T03:25:09.754Z,20.92
2023-03-16T03:29:09.835Z,20.92
2023-03-16T03:33:09.800Z,20.91
2023-03-16T03:37:09.676Z,20.90
2023-03-16T03:41:09.657Z,20.92
2023-03-16T03:45:09.517Z,20.98
2023-03-16T03:49:09.523Z,21.11
2023-03-16T03:53:09.456Z,21.25
2023-03-16T03:57:09.435Z,21.38
2023-03-16T04:01:09.558Z,21.45
2023-03-16T04:05:10.035Z,21.50
2023-03-16T04:09:09.315Z,21.54
2023-03-16T04:13:09.421Z,21.58
2023-03-16T04:17:09.490Z,21.60
2023-03-16T04:21:09.626Z,21.63
2023-03-16T04:25:11.420Z,21.67
2023-03-16T04:29:09.715Z,21.70
2023-03-16T04:33:09.839Z,21.72
2023-03-16T04:37:09.886Z,21.74
2023-03-16T04:41:09.881Z,21.77
2023-03-16T04:45:09.940Z,21.79
2023-03-16T04:49:10.009Z,21.81
2023-03-16T04:53:10.068Z,21.82
2023-03-16T04:57:10.026Z,21.83
2023-03-16T05:01:10.037Z,21.85
2023-03-16T05:05:10.047Z,21.87
2023-03-16T05:09:10.004Z,21.89
2023-03-16T05:13:09.959Z,21.92
2023-03-16T05:17:10.008Z,21.93
2023-03-16T05:21:09.951Z,21.97
2023-03-16T05:25:10.087Z,22.01
2023-03-16T05:29:10.072Z,22.06
2023-03-16T05:33:10.324Z,22.08
2023-03-16T05:37:10.163Z,22.12
2023-03-16T05:41:10.572Z,22.17
2023-03-16T05:45:10.070Z,22.23
2023-03-16T05:49:10.094Z,22.28
2023-03-16T05:53:10.584Z,22.93
2023-03-16T05:57:10.034Z,26.40
2023-03-16T06:01:09.954Z,30.26
2023-03-16T06:05:09.948Z,31.21
2023-03-16T06:09:09.897Z,32.51
2023-03-16T06:13:09.973Z,33.08
2023-03-16T06:17:09.835Z,29.87
2023-03-16T06:21:09.803Z,27.54
2023-03-16T06:25:09.944Z,26.49
2023-03-16T06:29:10.379Z,26.91
2023-03-16T06:33:10.399Z,30.77
2023-03-16T06:37:10.392Z,31.09
2023-03-16T06:41:10.379Z,26.85
2023-03-16T06:45:10.535Z,25.21
2023-03-16T06:49:11.636Z,24.51
2023-03-16T06:53:10.868Z,24.03
2023-03-16T06:57:10.860Z,23.53
2023-03-16T07:01:10.985Z,23.20
2023-03-16T07:05:11.015Z,23.02
2023-03-16T07:09:11.300Z,22.88
2023-03-16T07:13:12.277Z,22.76
2023-03-16T07:17:11.116Z,22.64
2023-03-16T07:21:11.185Z,22.66
2023-03-16T07:25:11.111Z,22.67
2023-03-16T07:29:11.015Z,22.79
2023-03-16T07:33:10.978Z,22.79
2023-03-16T07:37:11.131Z,22.75
2023-03-16T07:41:11.425Z,22.83
2023-03-16T07:45:11.439Z,23.01
2023-03-16T07:49:11.400Z,23.20
2023-03-16T07:53:11.556Z,23.35
2023-03-16T07:57:11.512Z,23.49
2023-03-16T08:01:11.651Z,23.57
2023-03-16T08:05:11.716Z,23.62
2023-03-16T08:09:11.681Z,23.68
2023-03-16T08:13:15.277Z,23.72
2023-03-16T08:17:11.687Z,23.75
2023-03-16T08:21:12.222Z,23.78
2023-03-16T08:25:11.406Z,23.79
2023-03-16T08:29:11.547Z,23.79
2023-03-16T08:33:11.516Z,23.63
2023-03-16T08:37:11.501Z,23.31
2023-03-16T08:41:16.251Z,23.09
2023-03-16T08:45:13.995Z,23.16
2023-03-16T08:49:11.241Z,23.50
2023-03-16T08:53:11.241Z,23.80
2023-03-16T08:57:12.174Z,23.99
2023-03-16T09:01:11.341Z,24.13
2023-03-16T09:05:11.192Z,24.23
2023-03-16T09:09:11.221Z,24.34
2023-03-16T09:13:11.050Z,24.41
2023-03-16T09:17:11.001Z,24.47
2023-03-16T09:21:10.928Z,24.51
2023-03-16T09:25:10.894Z,24.25
2023-03-16T09:29:10.972Z,23.72
2023-03-16T09:33:10.978Z,23.28
2023-03-16T09:37:10.880Z,22.94
2023-03-16T09:41:10.994Z,22.69
2023-03-16T09:45:11.117Z,22.65
2023-03-16T09:49:13.764Z,22.54
2023-03-16T09:53:10.908Z,22.38
2023-03-16T09:57:11.743Z,22.29
2023-03-16T10:01:10.927Z,22.11
2023-03-16T10:05:10.909Z,22.04
2023-03-16T10:09:10.769Z,21.90
2023-03-16T10:13:10.797Z,21.79
2023-03-16T10:17:10.707Z,21.54
2023-03-16T10:21:10.785Z,21.39
2023-03-16T10:25:10.579Z,21.38
2023-03-16T10:29:10.728Z,21.56
2023-03-16T10:33:10.645Z,21.73
2023-03-16T10:37:10.645Z,21.83
2023-03-16T10:41:10.721Z,21.84
2023-03-16T10:45:11.264Z,21.73
2023-03-16T10:49:10.913Z,21.68
2023-03-16T10:53:11.097Z,21.63
2023-03-16T10:57:11.478Z,21.70
2023-03-16T11:01:11.323Z,21.84
2023-03-16T11:05:12.573Z,21.99
2023-03-16T11:09:11.461Z,22.10
2023-03-16T11:13:12.274Z,22.22
2023-03-16T11:17:11.305Z,22.31
2023-03-16T11:21:11.305Z,22.38
2023-03-16T11:25:11.266Z,22.44
2023-03-16T11:29:11.750Z,22.47
2023-03-16T11:33:12.693Z,22.47
2023-03-16T11:37:11.177Z,22.45
2023-03-16T11:41:11.193Z,22.50
2023-03-16T11:45:11.453Z,22.55
2023-03-16T11:49:11.539Z,22.61
2023-03-16T11:53:11.518Z,22.66
2023-03-16T11:57:11.650Z,22.64
2023-03-16T12:01:11.737Z,22.63
2023-03-16T12:05:11.712Z,22.67
2023-03-16T12:09:11.806Z,22.68
2023-03-16T12:13:11.870Z,22.70
2023-03-16T12:17:12.236Z,22.70
2023-03-16T12:21:16.315Z,22.80
2023-03-16T12:25:11.961Z,22.86
2023-03-16T12:29:11.933Z,22.84
2023-03-16T12:33:11.906Z,22.81
2023-03-16T12:37:11.825Z,22.78
2023-03-16T12:41:11.813Z,22.73
2023-03-16T12:45:11.749Z,22.70
2023-03-16T12:49:11.879Z,22.65
2023-03-16T12:53:11.984Z,22.62
2023-03-16T12:57:12.258Z,22.58
2023-03-16T13:01:12.366Z,22.58
2023-03-16T13:05:12.435Z,22.54
2023-03-16T13:09:12.780Z,22.53
2023-03-16T13:13:12.760Z,22.53
2023-03-16T13:17:13.033Z,22.51
2023-03-16T13:21:13.251Z,22.49
2023-03-16T13:25:13.386Z,22.48
2023-03-16T13:29:13.565Z,22.47
2023-03-16T13:33:13.758Z,22.44
2023-03-16T13:37:13.976Z,22.41
2023-03-16T13:41:14.196Z,22.40
2023-03-16T13:45:14.189Z,22.40
2023-03-16T13:49:14.249Z,22.37
2023-03-16T13:53:14.108Z,22.35
2023-03-16T13:57:14.022Z,22.34
2023-03-16T14:01:14.127Z,22.33
2023-03-16T14:05:13.971Z,22.33
2023-03-16T14:09:13.961Z,22.32
2023-03-16T14:13:13.889Z,22.31
2023-03-16T14:17:13.851Z,22.31
2023-03-16T14:21:13.875Z,22.28
2023-03-16T14:25:13.851Z,22.28
2023-03-16T14:29:13.799Z,22.26
2023-03-16T14:33:13.777Z,22.24
2023-03-16T14:37:13.740Z,22.22
2023-03-16T14:41:13.739Z,22.21
2023-03-16T14:45:13.659Z,22.19
2023-03-16T14:49:13.622Z,22.17
2023-03-16T14:53:13.597Z,22.14
2023-03-16T14:57:13.569Z,22.11
2023-03-16T15:01:13.599Z,22.09
2023-03-16T15:05:13.547Z,22.08
2023-03-16T15:09:13.505Z,22.06
2023-03-16T15:13:13.806Z,22.03
2023-03-16T15:17:13.537Z,21.99
2023-03-16T15:21:13.527Z,21.97
2023-03-16T15:25:13.494Z,21.94
2023-03-16T15:29:13.504Z,21.93
2023-03-16T15:33:13.480Z,21.92
2023-03-16T15:37:14.320Z,21.94
2023-03-16T15:41:13.472Z,21.96
2023-03-16T15:45:13.481Z,21.97
2023-03-16T15:49:13.421Z,21.98
2023-03-16T15:53:29.209Z,21.99
2023-03-16T15:57:14.697Z,21.99
2023-03-16T16:01:13.691Z,21.99
2023-03-16T16:05:14.463Z,21.99
2023-03-16T16:09:13.639Z,21.97
2023-03-16T16:13:13.556Z,21.95
2023-03-16T16:17:13.541Z,21.93
2023-03-16T16:21:13.534Z,21.91
2023-03-16T16:25:13.506Z,21.89
2023-03-16T16:29:14.357Z,21.87
2023-03-16T16:33:13.535Z,21.85
2023-03-16T16:37:13.486Z,21.82
2023-03-16T16:41:13.564Z,21.81
2023-03-16T16:45:13.574Z,21.79
2023-03-16T16:49:13.486Z,21.78
2023-03-16T16:53:13.481Z,21.75
2023-03-16T16:57:13.563Z,21.73
2023-03-16T17:01:13.538Z,21.72
2023-03-16T17:05:13.524Z,21.70
2023-03-16T17:09:13.594Z,21.66
2023-03-16T17:13:13.607Z,21.65
2023-03-16T17:17:13.755Z,21.62
2023-03-16T17:21:13.714Z,21.61
2023-03-16T17:25:13.692Z,21.58
2023-03-16T17:29:13.762Z,21.58
2023-03-16T17:33:13.836Z,21.56
2023-03-16T17:37:13.895Z,21.56
2023-03-16T17:41:13.979Z,21.54
2023-03-16T17:45:14.054Z,21.52
2023-03-16T17:49:14.190Z,21.52
2023-03-16T17:53:14.216Z,21.51
2023-03-16T17:57:14.343Z,21.50
2023-03-16T18:01:14.454Z,21.49
2023-03-16T18:05:14.531Z,21.48
2023-03-16T18:09:14.624Z,21.45
2023-03-16T18:13:14.739Z,21.42
2023-03-16T18:17:14.867Z,21.40
2023-03-16T18:21:14.992Z,21.40
2023-03-16T18:25:15.103Z,21.39
2023-03-16T18:29:15.238Z,21.39
2023-03-16T18:33:15.366Z,21.38
2023-03-16T18:37:15.497Z,21.38
2023-03-16T18:41:15.675Z,21.37
2023-03-16T18:45:15.796Z,21.36
2023-03-16T18:49:15.919Z,21.35
2023-03-16T18:53:16.085Z,21.35
2023-03-16T18:57:16.186Z,21.34
2023-03-16T19:01:16.350Z,21.33
2023-03-16T19:05:16.481Z,21.33
2023-03-16T19:09:16.602Z,21.31
2023-03-16T19:13:16.730Z,21.30
2023-03-16T19:17:16.891Z,21.30
2023-03-16T19:21:17.080Z,21.28
2023-03-16T19:25:17.305Z,21.27
2023-03-16T19:29:17.477Z,21.26
2023-03-16T19:33:17.555Z,21.26
2023-03-16T19:37:17.740Z,21.26
2023-03-16T19:41:17.914Z,21.25
2023-03-16T19:45:18.099Z,21.24
2023-03-16T19:49:18.262Z,21.24
2023-03-16T19:53:18.459Z,21.23
2023-03-16T19:57:18.678Z,21.22
2023-03-16T20:01:18.889Z,21.22
2023-03-16T20:05:19.036Z,21.21
2023-03-16T20:09:19.268Z,21.20
2023-03-16T20:13:19.437Z,21.20
2023-03-16T20:17:19.639Z,21.19
2023-03-16T20:21:19.835Z,21.18
2023-03-16T20:25:20.050Z,21.18
2023-03-16T20:29:20.293Z,21.17
2023-03-16T20:33:20.512Z,21.17
2023-03-16T20:37:20.686Z,21.16
2023-03-16T20:41:20.977Z,21.16
2023-03-16T20:45:21.160Z,21.15
2023-03-16T20:49:21.380Z,21.13
2023-03-16T20:53:21.597Z,21.13
2023-03-16T20:57:21.771Z,21.12
2023-03-16T21:01:21.814Z,21.12
2023-03-16T21:05:21.718Z,21.10
2023-03-16T21:09:21.688Z,21.09
2023-03-16T21:13:21.662Z,21.09
2023-03-16T21:17:22.606Z,21.08
2023-03-16T21:21:21.612Z,21.07
2023-03-16T21:25:21.587Z,21.06
2023-03-16T21:29:21.561Z,21.06
2023-03-16T21:33:21.522Z,21.06
2023-03-16T21:37:21.388Z,21.05
2023-03-16T21:41:21.360Z,21.04
2023-03-16T21:45:21.353Z,21.03
2023-03-16T21:49:21.306Z,21.03
2023-03-16T21:53:21.279Z,21.02
2023-03-16T21:57:21.254Z,21.01
2023-03-16T22:01:21.219Z,21.01
2023-03-16T22:05:21.218Z,21.01
2023-03-16T22:09:21.145Z,21.00
2023-03-16T22:13:21.120Z,21.00
2023-03-16T22:17:21.090Z,20.98
2023-03-16T22:21:21.038Z,20.99
2023-03-16T22:25:20.971Z,20.98
2023-03-16T22:29:20.970Z,20.96
2023-03-16T22:33:21.079Z,20.95
2023-03-16T22:37:20.995Z,20.96
2023-03-16T22:41:21.029Z,20.94
2023-03-16T22:45:20.898Z,20.94
2023-03-16T22:49:20.994Z,20.93
2023-03-16T22:53:20.844Z,20.93
2023-03-16T22:57:20.781Z,20.93
2023-03-16T23:01:20.881Z,20.92
2023-03-16T23:05:20.739Z,20.92
2023-03-16T23:09:21.049Z,20.90
2023-03-16T23:13:20.674Z,20.90
2023-03-16T23:17:20.796Z,20.90
2023-03-16T23:21:20.949Z,20.90
2023-03-16T23:25:21.037Z,20.89
2023-03-16T23:29:21.218Z,20.89
2023-03-16T23:33:21.384Z,20.88
2023-03-16T23:37:21.597Z,20.86
2023-03-16T23:41:21.774Z,20.86
2023-03-16T23:45:21.919Z,20.86
2023-03-16T23:49:23.125Z,20.85
2023-03-16T23:53:22.095Z,20.86
2023-03-16T23:57:22.133Z,20.86
